Skip to main content Skip to accessibility
This website is not compatible with your web browser. You should install a newer browser. If you live in Jersey and need help upgrading call the States of Jersey web team on 440099.
Homegov.je

L'înformâtion et les sèrvices publyis pouor I'Île dé Jèrri

  • Choose the service you want to log in to:

  • gov.je

    Update your notification preferences

  • one.gov.je

    Access government and parish services

  • CAESAR

    Clear goods through customs or claim relief

  • Talentlink

    View or update your States of Jersey job application

CI Airfield TAFs

JERSEY - EGJJ

211058Z 2112/2121 13008KT 9999 FEW045 PROB30 TEMPO 2115/2121 5000 TSRAGS BKN040CB=

GUERNSEY - EGJB

211058Z 2112/2121 13008KT 9999 FEW045 PROB30 TEMPO 2115/2121 5000 TSRAGS BKN040CB=

ALDERNEY - EGJA

211058Z 2112/2119 13008KT 9999 FEW045 PROB30 TEMPO 2115/2119 5000 TSRAGS BKN040CB=

Back to top
rating button